createdAt,value
2023-01-22T00:01:04.437Z,-3.10
2023-01-22T00:03:31.704Z,-3.40
2023-01-22T00:05:58.883Z,-3.10
2023-01-22T00:08:25.957Z,-3.20
2023-01-22T00:10:55.198Z,-3.20
2023-01-22T00:13:24.871Z,-3.20
2023-01-22T00:15:52.557Z,-3.20
2023-01-22T00:18:19.953Z,-3.20
2023-01-22T00:20:48.647Z,-3.10
2023-01-22T00:23:16.156Z,-3.10
2023-01-22T00:25:43.615Z,-3.10
2023-01-22T00:28:11.582Z,-3.00
2023-01-22T00:30:39.242Z,-3.10
2023-01-22T00:33:06.677Z,-3.30
2023-01-22T00:35:35.106Z,-3.30
2023-01-22T00:38:02.445Z,-3.20
2023-01-22T00:40:29.694Z,-3.10
2023-01-22T00:42:56.827Z,-3.30
2023-01-22T00:45:23.902Z,-3.10
2023-01-22T00:47:52.117Z,-3.10
2023-01-22T00:50:19.658Z,-3.20
2023-01-22T00:52:46.839Z,-3.20
2023-01-22T00:55:13.874Z,-3.30
2023-01-22T00:57:40.958Z,-3.30
2023-01-22T01:00:09.231Z,-3.10
2023-01-22T01:02:56.409Z,-3.20
2023-01-22T01:05:23.603Z,-3.20
2023-01-22T01:07:50.646Z,-3.50
2023-01-22T01:10:18.596Z,-3.20
2023-01-22T01:12:45.924Z,-3.30
2023-01-22T01:15:13.064Z,-3.40
2023-01-22T01:17:40.362Z,-3.20
2023-01-22T01:20:08.008Z,-3.10
2023-01-22T01:22:35.371Z,-3.40
2023-01-22T01:25:02.623Z,-3.40
2023-01-22T01:27:31.810Z,-3.40
2023-01-22T01:29:59.321Z,-3.10
2023-01-22T01:32:26.382Z,-3.10
2023-01-22T01:34:53.553Z,-3.20
2023-01-22T01:37:20.668Z,-3.20
2023-01-22T01:39:52.033Z,-3.00
2023-01-22T01:42:29.249Z,-3.10
2023-01-22T01:45:26.615Z,-3.20
2023-01-22T01:48:21.135Z,-3.10
2023-01-22T01:50:54.177Z,-3.30
2023-01-22T01:53:21.427Z,-3.30
2023-01-22T01:55:49.760Z,-3.00
2023-01-22T01:58:21.813Z,-3.20
2023-01-22T02:00:55.999Z,-3.30
2023-01-22T02:03:23.124Z,-3.10
2023-01-22T02:05:50.280Z,-3.10
2023-01-22T02:08:17.485Z,-3.00
2023-01-22T02:10:45.440Z,-2.90
2023-01-22T02:13:19.638Z,-3.20
2023-01-22T02:15:46.933Z,-3.20
2023-01-22T02:18:15.597Z,-3.30
2023-01-22T02:20:55.782Z,-3.30
2023-01-22T02:23:23.326Z,-3.20
2023-01-22T02:25:50.520Z,-3.10
2023-01-22T02:28:18.019Z,-3.10
2023-01-22T02:30:47.921Z,-3.30
2023-01-22T02:33:15.400Z,-3.40
2023-01-22T02:35:42.562Z,-3.40
2023-01-22T02:38:09.690Z,-3.30
2023-01-22T02:40:36.818Z,-3.40
2023-01-22T02:43:04.061Z,-3.40
2023-01-22T02:45:31.138Z,-3.20
2023-01-22T02:47:58.241Z,-3.10
2023-01-22T02:50:25.356Z,-3.10
2023-01-22T02:52:52.398Z,-2.90
2023-01-22T02:55:19.433Z,-3.10
2023-01-22T02:57:46.576Z,-3.20
2023-01-22T03:00:14.357Z,-3.10
2023-01-22T03:02:41.487Z,-2.90
2023-01-22T03:05:08.751Z,-3.10
2023-01-22T03:07:47.587Z,-2.90
2023-01-22T03:10:17.636Z,-3.00
2023-01-22T03:13:04.714Z,-3.10
2023-01-22T03:15:50.773Z,-3.10
2023-01-22T03:18:36.510Z,-2.90
2023-01-22T03:21:16.799Z,-3.30
2023-01-22T03:23:46.826Z,-3.40
2023-01-22T03:26:14.472Z,-3.00
2023-01-22T03:28:42.109Z,-3.00
2023-01-22T03:31:09.827Z,-3.00
2023-01-22T03:33:36.912Z,-2.90
2023-01-22T03:36:06.903Z,-2.80
2023-01-22T03:38:33.967Z,-3.00
2023-01-22T03:41:09.108Z,-2.90
2023-01-22T03:43:36.239Z,-3.00
2023-01-22T03:46:09.008Z,-2.90
2023-01-22T03:48:36.400Z,-3.10
2023-01-22T03:51:12.865Z,-3.10
2023-01-22T03:53:40.719Z,-3.20
2023-01-22T03:56:11.448Z,-3.00
2023-01-22T03:58:39.078Z,-3.20
2023-01-22T04:01:09.456Z,-3.30
2023-01-22T04:03:37.712Z,-3.50
2023-01-22T04:06:05.965Z,-3.40
2023-01-22T04:08:34.273Z,-3.30
2023-01-22T04:11:02.102Z,-3.30
2023-01-22T04:13:31.369Z,-3.30
2023-01-22T04:15:58.707Z,-3.30
2023-01-22T04:18:25.808Z,-3.30
2023-01-22T04:20:53.603Z,-3.40
2023-01-22T04:23:22.025Z,-3.40
2023-01-22T04:25:49.498Z,-3.40
2023-01-22T04:28:16.825Z,-3.40
2023-01-22T04:30:45.725Z,-3.40
2023-01-22T04:33:13.715Z,-3.40
2023-01-22T04:35:40.896Z,-3.40
2023-01-22T04:38:11.122Z,-3.40
2023-01-22T04:40:38.193Z,-3.40
2023-01-22T04:43:07.270Z,-3.30
2023-01-22T04:45:34.666Z,-3.20
2023-01-22T04:48:02.260Z,-3.20
2023-01-22T04:50:32.273Z,-3.40
2023-01-22T04:53:00.240Z,-3.40
2023-01-22T04:55:27.972Z,-3.40
2023-01-22T04:57:59.273Z,-3.20
2023-01-22T05:00:27.208Z,-3.30
2023-01-22T05:03:01.923Z,-3.20
2023-01-22T05:05:30.280Z,-3.20
2023-01-22T05:07:57.786Z,-3.40
2023-01-22T05:10:25.100Z,-3.30
2023-01-22T05:12:52.654Z,-3.40
2023-01-22T05:15:24.473Z,-3.30
2023-01-22T05:17:53.126Z,-3.20
2023-01-22T05:20:21.388Z,-3.20
2023-01-22T05:22:49.888Z,-3.30
2023-01-22T05:25:17.012Z,-3.30
2023-01-22T05:27:44.558Z,-3.20
2023-01-22T05:30:12.718Z,-3.30
2023-01-22T05:32:39.899Z,-3.30
2023-01-22T05:35:07.327Z,-3.30
2023-01-22T05:37:34.406Z,-3.20
2023-01-22T05:40:02.190Z,-3.30
2023-01-22T05:42:30.700Z,-3.60
2023-01-22T05:44:57.795Z,-3.20
2023-01-22T05:47:24.864Z,-3.20
2023-01-22T05:49:51.922Z,-3.30
2023-01-22T05:52:21.008Z,-3.30
2023-01-22T05:54:48.134Z,-3.20
2023-01-22T05:57:15.232Z,-3.30
2023-01-22T05:59:42.231Z,-3.20
2023-01-22T06:02:09.434Z,-3.20
2023-01-22T06:04:36.470Z,-3.30
2023-01-22T06:07:03.523Z,-3.20
2023-01-22T06:09:30.599Z,-3.10
2023-01-22T06:11:57.722Z,-3.30
2023-01-22T06:14:24.885Z,-3.20
2023-01-22T06:16:52.437Z,-3.20
2023-01-22T06:19:19.563Z,-3.20
2023-01-22T06:21:46.618Z,-3.20
2023-01-22T06:24:13.668Z,-3.20
2023-01-22T06:26:40.738Z,-3.20
2023-01-22T06:29:07.862Z,-3.20
2023-01-22T06:31:35.046Z,-3.10
2023-01-22T06:34:02.363Z,-3.20
2023-01-22T06:36:29.572Z,-3.10
2023-01-22T06:38:56.693Z,-3.10
2023-01-22T06:41:23.816Z,-3.10
2023-01-22T06:43:50.859Z,-3.10
2023-01-22T06:46:17.977Z,-3.00
2023-01-22T06:48:47.565Z,-3.10
2023-01-22T06:51:16.170Z,-3.20
2023-01-22T06:53:43.274Z,-3.20
2023-01-22T06:56:10.540Z,-3.10
2023-01-22T06:58:37.574Z,-3.10
2023-01-22T07:01:05.995Z,-3.00
2023-01-22T07:03:33.095Z,-2.90
2023-01-22T07:06:02.553Z,-3.00
2023-01-22T07:08:31.436Z,-3.00
2023-01-22T07:10:59.184Z,-2.90
2023-01-22T07:13:26.287Z,-3.00
2023-01-22T07:15:53.546Z,-3.00
2023-01-22T07:18:23.889Z,-2.90
2023-01-22T07:20:51.251Z,-2.90
2023-01-22T07:23:18.756Z,-2.80
2023-01-22T07:25:46.371Z,-2.70
2023-01-22T07:28:15.218Z,-2.80
2023-01-22T07:30:43.651Z,-2.90
2023-01-22T07:33:11.723Z,-2.90
2023-01-22T07:35:39.266Z,-2.90
2023-01-22T07:38:07.045Z,-2.80
2023-01-22T07:40:34.247Z,-2.80
2023-01-22T07:43:06.357Z,-2.70
2023-01-22T07:45:33.723Z,-2.60
2023-01-22T07:48:01.261Z,-2.60
2023-01-22T07:50:31.127Z,-2.80
2023-01-22T07:53:00.705Z,-2.80
2023-01-22T07:55:28.145Z,-2.60
2023-01-22T07:57:59.806Z,-2.40
2023-01-22T08:00:27.184Z,-2.50
2023-01-22T08:02:54.586Z,-2.50
2023-01-22T08:05:21.996Z,-2.70
2023-01-22T08:07:49.426Z,-2.80
2023-01-22T08:10:17.349Z,-2.70
2023-01-22T08:12:46.365Z,-2.50
2023-01-22T08:15:15.127Z,-2.40
2023-01-22T08:17:42.695Z,-2.20
2023-01-22T08:20:10.989Z,-2.40
2023-01-22T08:22:38.125Z,-2.40
2023-01-22T08:25:05.909Z,-2.30
2023-01-22T08:27:35.283Z,-2.20
2023-01-22T08:30:04.345Z,-2.10
2023-01-22T08:32:32.158Z,-2.50
2023-01-22T08:34:59.259Z,-2.50
2023-01-22T08:37:26.452Z,-2.60
2023-01-22T08:39:53.531Z,-2.60
2023-01-22T08:42:20.597Z,-2.50
2023-01-22T08:44:47.599Z,-2.40
2023-01-22T08:47:14.731Z,-2.50
2023-01-22T08:49:41.809Z,-2.50
2023-01-22T08:52:09.231Z,-2.40
2023-01-22T08:54:36.549Z,-2.50
2023-01-22T08:57:03.994Z,-2.50
2023-01-22T08:59:31.337Z,-2.50
2023-01-22T09:01:59.944Z,-2.40
2023-01-22T09:04:27.875Z,-2.40
2023-01-22T09:06:55.469Z,-2.50
2023-01-22T09:09:22.950Z,-2.40
2023-01-22T09:11:50.043Z,-2.30
2023-01-22T09:14:17.084Z,-2.20
2023-01-22T09:16:44.195Z,-2.00
2023-01-22T09:19:12.175Z,-2.20
2023-01-22T09:21:39.530Z,-2.20
2023-01-22T09:24:07.734Z,-2.10
2023-01-22T09:26:36.958Z,-2.00
2023-01-22T09:29:06.019Z,-2.00
2023-01-22T09:31:37.497Z,-2.10
2023-01-22T09:34:05.043Z,-2.10
2023-01-22T09:36:32.387Z,-2.00
2023-01-22T09:38:59.501Z,-1.70
2023-01-22T09:41:47.549Z,-1.50
2023-01-22T09:44:40.574Z,-1.40
2023-01-22T09:47:23.148Z,-1.40
2023-01-22T09:50:00.774Z,-1.50
2023-01-22T09:52:36.894Z,-1.50
2023-01-22T09:55:06.097Z,-1.40
2023-01-22T09:57:33.373Z,-1.40
2023-01-22T10:00:00.579Z,-1.70
2023-01-22T10:02:39.464Z,-1.80
2023-01-22T10:05:31.012Z,-1.50
2023-01-22T10:08:10.199Z,-1.30
2023-01-22T10:10:37.568Z,-1.60
2023-01-22T10:13:21.085Z,-1.70
2023-01-22T10:15:50.538Z,-1.50
2023-01-22T10:18:36.328Z,-1.40
2023-01-22T10:21:07.389Z,-1.40
2023-01-22T10:23:34.972Z,-1.60
2023-01-22T10:26:31.033Z,-1.50
2023-01-22T10:29:03.225Z,-1.50
2023-01-22T10:31:33.792Z,-1.30
2023-01-22T10:34:10.924Z,-1.50
2023-01-22T10:36:38.023Z,-1.30
2023-01-22T10:39:17.252Z,-1.40
2023-01-22T10:41:46.152Z,-1.60
2023-01-22T10:44:16.960Z,-1.60
2023-01-22T10:46:46.470Z,-1.40
2023-01-22T10:49:22.625Z,-1.50
2023-01-22T10:51:58.497Z,-1.60
2023-01-22T10:54:46.058Z,-1.50
2023-01-22T10:57:27.647Z,-1.70
2023-01-22T11:00:13.620Z,-1.50
2023-01-22T11:02:46.670Z,-1.60
2023-01-22T11:05:26.560Z,-1.50
2023-01-22T11:08:16.975Z,-1.50
2023-01-22T11:11:05.955Z,-1.60
2023-01-22T11:14:16.117Z,-1.50
2023-01-22T11:16:43.983Z,-1.50
2023-01-22T11:19:21.650Z,-1.40
2023-01-22T11:21:57.642Z,-1.50
2023-01-22T11:24:47.437Z,-1.60
2023-01-22T11:27:14.663Z,-1.20
2023-01-22T11:30:08.924Z,-1.40
2023-01-22T11:33:04.583Z,-1.20
2023-01-22T11:35:40.626Z,-1.00
2023-01-22T11:38:10.600Z,-0.90
2023-01-22T11:41:27.565Z,-1.00
2023-01-22T11:44:06.367Z,-1.30
2023-01-22T11:46:38.778Z,-1.30
2023-01-22T11:49:14.933Z,-1.40
2023-01-22T11:51:44.876Z,-1.50
2023-01-22T11:54:30.421Z,-1.50
2023-01-22T11:57:03.138Z,-1.50
2023-01-22T11:59:44.615Z,-1.40
2023-01-22T12:02:20.126Z,-1.40
2023-01-22T12:05:08.533Z,-1.10
2023-01-22T12:07:35.525Z,-1.20
2023-01-22T12:10:24.124Z,-1.10
2023-01-22T12:13:03.307Z,-0.90
2023-01-22T12:15:47.549Z,-0.70
2023-01-22T12:18:17.095Z,-0.50
2023-01-22T12:20:47.236Z,-1.20
2023-01-22T12:23:31.399Z,-1.40
2023-01-22T12:26:05.122Z,-1.50
2023-01-22T12:28:51.952Z,-1.60
2023-01-22T12:31:34.891Z,-1.70
2023-01-22T12:34:10.558Z,-1.30
2023-01-22T12:36:37.978Z,-1.80
2023-01-22T12:39:25.663Z,-1.70
2023-01-22T12:42:07.448Z,-1.70
2023-01-22T12:45:06.212Z,-1.70
2023-01-22T12:47:45.245Z,-1.70
2023-01-22T12:50:24.174Z,-1.70
2023-01-22T12:53:03.147Z,-1.70
2023-01-22T12:55:43.927Z,-1.70
2023-01-22T12:58:26.455Z,-1.60
2023-01-22T13:01:03.268Z,-1.50
2023-01-22T13:03:32.294Z,-1.20
2023-01-22T13:06:02.103Z,-1.10
2023-01-22T13:08:42.140Z,-1.30
2023-01-22T13:11:34.775Z,-1.40
2023-01-22T13:14:42.987Z,-1.40
2023-01-22T13:17:22.299Z,-1.60
2023-01-22T13:19:51.404Z,-1.30
2023-01-22T13:22:27.609Z,-1.50
2023-01-22T13:24:57.067Z,-1.50
2023-01-22T13:27:30.394Z,-1.30
2023-01-22T13:30:27.718Z,-1.40
2023-01-22T13:33:06.155Z,-1.40
2023-01-22T13:35:35.759Z,-1.40
2023-01-22T13:38:02.877Z,-1.40
2023-01-22T13:40:37.102Z,-1.30
2023-01-22T13:43:17.044Z,-1.30
2023-01-22T13:45:45.735Z,-1.30
2023-01-22T13:48:21.887Z,-1.30
2023-01-22T13:51:07.563Z,-1.40
2023-01-22T13:53:42.931Z,-1.60
2023-01-22T13:56:21.904Z,-1.60
2023-01-22T13:58:49.691Z,-1.60
2023-01-22T14:01:32.096Z,-1.60
2023-01-22T14:04:04.727Z,-1.60
2023-01-22T14:06:47.444Z,-1.60
2023-01-22T14:09:32.325Z,-1.60
2023-01-22T14:12:00.741Z,-1.60
2023-01-22T14:14:38.284Z,-1.60
2023-01-22T14:17:05.636Z,-1.60
2023-01-22T14:19:32.721Z,-1.30
2023-01-22T14:21:59.819Z,-1.40
2023-01-22T14:24:26.916Z,-1.50
2023-01-22T14:26:54.070Z,-1.60
2023-01-22T14:29:21.217Z,-1.60
2023-01-22T14:31:48.455Z,-1.50
2023-01-22T14:34:15.529Z,-1.20
2023-01-22T14:36:44.992Z,-1.30
2023-01-22T14:39:12.086Z,-1.40
2023-01-22T14:41:39.172Z,-1.40
2023-01-22T14:44:06.371Z,-1.50
2023-01-22T14:46:33.672Z,-1.40
2023-01-22T14:49:02.069Z,-1.40
2023-01-22T14:51:29.265Z,-1.40
2023-01-22T14:53:58.833Z,-1.50
2023-01-22T14:56:26.228Z,-1.60
2023-01-22T14:58:53.372Z,-1.50
2023-01-22T15:01:22.900Z,-1.60
2023-01-22T15:03:50.297Z,-1.70
2023-01-22T15:06:17.411Z,-1.80
2023-01-22T15:08:44.420Z,-1.80
2023-01-22T15:11:11.943Z,-1.90
2023-01-22T15:13:38.977Z,-1.80
2023-01-22T15:16:08.482Z,-1.50
2023-01-22T15:18:36.834Z,-1.80
2023-01-22T15:21:05.459Z,-1.80
2023-01-22T15:23:33.820Z,-1.80
2023-01-22T15:26:03.620Z,-1.80
2023-01-22T15:28:31.223Z,-1.80
2023-01-22T15:31:07.610Z,-1.70
2023-01-22T15:33:35.891Z,-1.80
2023-01-22T15:36:04.780Z,-1.80
2023-01-22T15:38:32.068Z,-1.70
2023-01-22T15:41:18.709Z,-1.80
2023-01-22T15:43:50.798Z,-1.90
2023-01-22T15:46:25.954Z,-1.80
2023-01-22T15:48:53.093Z,-1.80
2023-01-22T15:51:20.852Z,-1.80
2023-01-22T15:53:56.092Z,-1.80
2023-01-22T15:56:25.981Z,-1.80
2023-01-22T15:58:53.833Z,-1.80
2023-01-22T16:01:21.770Z,-1.60
2023-01-22T16:03:48.983Z,-1.70
2023-01-22T16:06:22.960Z,-1.70
2023-01-22T16:08:51.499Z,-1.80
2023-01-22T16:11:19.298Z,-1.70
2023-01-22T16:13:46.653Z,-1.70
2023-01-22T16:16:18.256Z,-1.70
2023-01-22T16:18:46.231Z,-1.60
2023-01-22T16:21:14.367Z,-1.70
2023-01-22T16:23:43.345Z,-1.70
2023-01-22T16:26:19.514Z,-1.80
2023-01-22T16:28:49.633Z,-1.80
2023-01-22T16:31:19.594Z,-1.70
2023-01-22T16:33:49.956Z,-1.80
2023-01-22T16:36:19.227Z,-1.80
2023-01-22T16:38:46.869Z,-1.90
2023-01-22T16:41:24.939Z,-1.80
2023-01-22T16:44:00.913Z,-1.80
2023-01-22T16:46:30.656Z,-1.80
2023-01-22T16:49:00.311Z,-1.80
2023-01-22T16:51:33.007Z,-1.80
2023-01-22T16:54:00.139Z,-1.80
2023-01-22T16:56:27.175Z,-1.80
2023-01-22T16:58:54.291Z,-1.70
2023-01-22T17:01:21.822Z,-1.70
2023-01-22T17:03:49.084Z,-1.60
2023-01-22T17:06:47.127Z,-1.40
2023-01-22T17:09:19.899Z,-1.50
2023-01-22T17:11:53.573Z,-1.60
2023-01-22T17:14:23.067Z,-1.60
2023-01-22T17:16:50.613Z,-1.60
2023-01-22T17:19:19.753Z,-1.60
2023-01-22T17:21:51.643Z,-1.40
2023-01-22T17:24:18.769Z,-1.40
2023-01-22T17:26:47.993Z,-1.30
2023-01-22T17:29:15.215Z,-1.20
2023-01-22T17:31:42.652Z,-1.30
2023-01-22T17:34:11.301Z,-1.40
2023-01-22T17:36:39.793Z,-1.40
2023-01-22T17:39:08.224Z,-1.40
2023-01-22T17:41:35.381Z,-1.50
2023-01-22T17:44:02.664Z,-1.40
2023-01-22T17:46:32.041Z,-1.50
2023-01-22T17:49:01.397Z,-1.40
2023-01-22T17:51:30.360Z,-1.40
2023-01-22T17:53:59.344Z,-1.50
2023-01-22T17:56:32.311Z,-1.40
2023-01-22T17:59:01.032Z,-1.40
2023-01-22T18:01:30.605Z,-1.30
2023-01-22T18:04:02.972Z,-1.60
2023-01-22T18:06:30.288Z,-1.60
2023-01-22T18:08:58.232Z,-1.60
2023-01-22T18:11:28.214Z,-1.70
2023-01-22T18:14:00.098Z,-1.70
2023-01-22T18:16:30.352Z,-1.80
2023-01-22T18:18:59.106Z,-1.80
2023-01-22T18:21:26.436Z,-1.80
2023-01-22T18:23:53.575Z,-1.80
2023-01-22T18:26:23.062Z,-1.90
2023-01-22T18:28:51.865Z,-1.90
2023-01-22T18:31:22.454Z,-2.00
2023-01-22T18:33:50.001Z,-2.00
2023-01-22T18:36:20.570Z,-2.00
2023-01-22T18:38:48.228Z,-2.10
2023-01-22T18:41:23.877Z,-2.00
2023-01-22T18:43:56.276Z,-2.10
2023-01-22T18:46:25.985Z,-2.10
2023-01-22T18:48:56.489Z,-2.10
2023-01-22T18:51:24.972Z,-2.10
2023-01-22T18:53:52.095Z,-2.10
2023-01-22T18:56:19.182Z,-2.10
2023-01-22T18:58:48.228Z,-2.10
2023-01-22T19:01:17.331Z,-2.10
2023-01-22T19:03:46.887Z,-2.20
2023-01-22T19:06:17.019Z,-2.20
2023-01-22T19:09:01.966Z,-2.30
2023-01-22T19:11:30.615Z,-2.30
2023-01-22T19:13:59.757Z,-2.20
2023-01-22T19:16:28.106Z,-2.20
2023-01-22T19:19:01.025Z,-2.20
2023-01-22T19:21:27.992Z,-2.30
2023-01-22T19:23:57.435Z,-2.20
2023-01-22T19:26:32.802Z,-2.30
2023-01-22T19:29:04.416Z,-2.30
2023-01-22T19:31:34.216Z,-2.30
2023-01-22T19:34:02.382Z,-2.20
2023-01-22T19:36:31.825Z,-2.30
2023-01-22T19:39:01.696Z,-2.20
2023-01-22T19:41:28.935Z,-2.20
2023-01-22T19:43:58.008Z,-2.20
2023-01-22T19:46:28.677Z,-2.20
2023-01-22T19:48:56.448Z,-2.30
2023-01-22T19:51:26.982Z,-2.30
2023-01-22T19:53:54.904Z,-2.40
2023-01-22T19:56:33.150Z,-2.30
2023-01-22T19:59:07.095Z,-2.40
2023-01-22T20:01:36.907Z,-2.40
2023-01-22T20:04:07.107Z,-2.30
2023-01-22T20:06:34.780Z,-2.40
2023-01-22T20:09:02.314Z,-2.40
2023-01-22T20:11:29.477Z,-2.40
2023-01-22T20:13:57.379Z,-2.40
2023-01-22T20:16:27.056Z,-2.40
2023-01-22T20:18:55.062Z,-2.50
2023-01-22T20:21:23.180Z,-2.50
2023-01-22T20:23:51.151Z,-2.50
2023-01-22T20:26:19.758Z,-2.50
2023-01-22T20:28:47.438Z,-2.50
2023-01-22T20:31:19.980Z,-2.50
2023-01-22T20:33:47.500Z,-2.50
2023-01-22T20:36:15.657Z,-2.50
2023-01-22T20:38:45.921Z,-2.50
2023-01-22T20:41:14.668Z,-2.50
2023-01-22T20:43:43.547Z,-2.50
2023-01-22T20:46:23.113Z,-2.50
2023-01-22T20:48:51.190Z,-2.50
2023-01-22T20:51:21.768Z,-2.50
2023-01-22T20:53:50.287Z,-2.50
2023-01-22T20:56:28.445Z,-2.60
2023-01-22T20:58:57.555Z,-2.50
2023-01-22T21:01:25.251Z,-2.60
2023-01-22T21:03:54.917Z,-2.50
2023-01-22T21:06:22.315Z,-2.50
2023-01-22T21:08:52.503Z,-2.50
2023-01-22T21:11:21.360Z,-2.50
2023-01-22T21:13:50.532Z,-2.40
2023-01-22T21:16:23.196Z,-2.30
2023-01-22T21:18:53.152Z,-2.40
2023-01-22T21:21:21.243Z,-2.40
2023-01-22T21:23:49.689Z,-2.30
2023-01-22T21:26:19.439Z,-2.20
2023-01-22T21:28:48.386Z,-2.40
2023-01-22T21:31:21.419Z,-2.40
2023-01-22T21:33:49.275Z,-2.00
2023-01-22T21:36:18.510Z,-2.40
2023-01-22T21:38:49.449Z,-2.40
2023-01-22T21:41:18.494Z,-2.40
2023-01-22T21:44:05.782Z,-2.40
2023-01-22T21:46:40.141Z,-2.50
2023-01-22T21:49:18.600Z,-2.40
2023-01-22T21:52:05.605Z,-2.30
2023-01-22T21:54:38.252Z,-2.30
2023-01-22T21:57:06.553Z,-2.40
2023-01-22T21:59:33.814Z,-2.40
2023-01-22T22:02:01.047Z,-2.50
2023-01-22T22:04:28.390Z,-2.50
2023-01-22T22:06:55.439Z,-2.40
2023-01-22T22:09:25.383Z,-2.40
2023-01-22T22:11:56.451Z,-2.40
2023-01-22T22:14:24.705Z,-2.40
2023-01-22T22:16:52.531Z,-2.40
2023-01-22T22:19:20.391Z,-2.40
2023-01-22T22:21:47.846Z,-2.40
2023-01-22T22:24:14.962Z,-2.40
2023-01-22T22:26:42.046Z,-2.50
2023-01-22T22:29:10.443Z,-2.40
2023-01-22T22:31:38.166Z,-2.40
2023-01-22T22:34:05.589Z,-2.50
2023-01-22T22:36:33.557Z,-2.40
2023-01-22T22:39:01.611Z,-2.40
2023-01-22T22:41:32.376Z,-2.30
2023-01-22T22:43:59.671Z,-2.30
2023-01-22T22:46:31.663Z,-2.30
2023-01-22T22:49:00.441Z,-2.30
2023-01-22T22:51:33.454Z,-2.40
2023-01-22T22:54:05.246Z,-2.40
2023-01-22T22:56:32.485Z,-2.30
2023-01-22T22:59:01.088Z,-2.30
2023-01-22T23:01:30.373Z,-2.30
2023-01-22T23:03:57.864Z,-2.40
2023-01-22T23:06:28.420Z,-2.40
2023-01-22T23:08:57.290Z,-2.50
2023-01-22T23:11:31.119Z,-2.40
2023-01-22T23:14:01.606Z,-2.50
2023-01-22T23:16:31.821Z,-2.40
2023-01-22T23:19:00.794Z,-2.40
2023-01-22T23:21:28.795Z,-2.40
2023-01-22T23:23:56.731Z,-2.50
2023-01-22T23:26:28.304Z,-2.50
2023-01-22T23:28:58.056Z,-2.50
2023-01-22T23:31:26.778Z,-2.50
2023-01-22T23:33:55.632Z,-2.40
2023-01-22T23:36:23.768Z,-2.40
2023-01-22T23:38:50.804Z,-2.40
2023-01-22T23:41:19.272Z,-2.40
2023-01-22T23:43:47.187Z,-2.50
2023-01-22T23:46:23.470Z,-2.40
2023-01-22T23:48:51.518Z,-2.50
2023-01-22T23:51:19.162Z,-2.50
2023-01-22T23:53:48.526Z,-2.50
2023-01-22T23:56:16.421Z,-2.50
2023-01-22T23:58:43.847Z,-2.40
